sensor_id;sensor_type;location;lat;lon;timestamp;P1;durP1;ratioP1;P2;durP2;ratioP2
19887;SDS011;10106;51.332;12.336;2022-12-07T00:01:26;7.57;;;3.30;;
19887;SDS011;10106;51.332;12.336;2022-12-07T00:03:54;14.70;;;5.67;;
19887;SDS011;10106;51.332;12.336;2022-12-07T00:06:35;10.37;;;4.37;;
19887;SDS011;10106;51.332;12.336;2022-12-07T00:09:06;8.87;;;4.20;;
19887;SDS011;10106;51.332;12.336;2022-12-07T00:11:34;6.50;;;3.70;;
19887;SDS011;10106;51.332;12.336;2022-12-07T00:14:01;11.50;;;6.13;;
19887;SDS011;10106;51.332;12.336;2022-12-07T00:16:30;9.67;;;4.50;;
19887;SDS011;10106;51.332;12.336;2022-12-07T00:18:57;6.20;;;3.70;;
19887;SDS011;10106;51.332;12.336;2022-12-07T00:21:27;6.00;;;3.50;;
19887;SDS011;10106;51.332;12.336;2022-12-07T00:23:55;5.57;;;3.30;;
19887;SDS011;10106;51.332;12.336;2022-12-07T00:28:52;7.80;;;4.10;;
19887;SDS011;10106;51.332;12.336;2022-12-07T00:31:20;10.63;;;4.60;;
19887;SDS011;10106;51.332;12.336;2022-12-07T00:33:48;10.97;;;3.87;;
19887;SDS011;10106;51.332;12.336;2022-12-07T00:36:15;8.37;;;3.80;;
19887;SDS011;10106;51.332;12.336;2022-12-07T00:38:42;6.23;;;4.43;;
19887;SDS011;10106;51.332;12.336;2022-12-07T00:41:12;17.73;;;5.63;;
19887;SDS011;10106;51.332;12.336;2022-12-07T00:43:42;8.80;;;4.63;;
19887;SDS011;10106;51.332;12.336;2022-12-07T00:46:12;11.27;;;3.80;;
19887;SDS011;10106;51.332;12.336;2022-12-07T00:48:38;10.10;;;4.43;;
19887;SDS011;10106;51.332;12.336;2022-12-07T00:51:05;4.70;;;3.20;;
19887;SDS011;10106;51.332;12.336;2022-12-07T00:53:31;7.47;;;4.73;;
19887;SDS011;10106;51.332;12.336;2022-12-07T00:56:04;8.40;;;3.70;;
19887;SDS011;10106;51.332;12.336;2022-12-07T00:58:51;8.00;;;3.73;;
19887;SDS011;10106;51.332;12.336;2022-12-07T01:01:25;11.93;;;6.13;;
19887;SDS011;10106;51.332;12.336;2022-12-07T01:03:53;6.03;;;3.57;;
19887;SDS011;10106;51.332;12.336;2022-12-07T01:06:19;6.13;;;3.10;;
19887;SDS011;10106;51.332;12.336;2022-12-07T01:08:46;20.83;;;3.87;;
19887;SDS011;10106;51.332;12.336;2022-12-07T01:11:14;5.60;;;3.67;;
19887;SDS011;10106;51.332;12.336;2022-12-07T01:13:40;7.37;;;3.90;;
19887;SDS011;10106;51.332;12.336;2022-12-07T01:16:06;11.10;;;5.67;;
19887;SDS011;10106;51.332;12.336;2022-12-07T01:18:33;6.27;;;3.50;;
19887;SDS011;10106;51.332;12.336;2022-12-07T01:21:01;13.00;;;5.10;;
19887;SDS011;10106;51.332;12.336;2022-12-07T01:23:29;11.77;;;4.70;;
19887;SDS011;10106;51.332;12.336;2022-12-07T01:25:56;7.13;;;3.90;;
19887;SDS011;10106;51.332;12.336;2022-12-07T01:28:22;18.20;;;4.53;;
19887;SDS011;10106;51.332;12.336;2022-12-07T01:31:02;17.43;;;4.93;;
19887;SDS011;10106;51.332;12.336;2022-12-07T01:33:30;5.47;;;4.47;;
19887;SDS011;10106;51.332;12.336;2022-12-07T01:36:05;10.73;;;4.50;;
19887;SDS011;10106;51.332;12.336;2022-12-07T01:38:38;7.30;;;3.37;;
19887;SDS011;10106;51.332;12.336;2022-12-07T01:41:05;9.47;;;4.30;;
19887;SDS011;10106;51.332;12.336;2022-12-07T01:43:32;11.03;;;4.87;;
19887;SDS011;10106;51.332;12.336;2022-12-07T01:45:59;8.93;;;3.70;;
19887;SDS011;10106;51.332;12.336;2022-12-07T01:48:32;7.97;;;3.83;;
19887;SDS011;10106;51.332;12.336;2022-12-07T01:51:04;10.40;;;4.10;;
19887;SDS011;10106;51.332;12.336;2022-12-07T01:53:37;8.17;;;4.07;;
19887;SDS011;10106;51.332;12.336;2022-12-07T01:56:07;5.90;;;3.50;;
19887;SDS011;10106;51.332;12.336;2022-12-07T01:58:35;9.70;;;3.40;;
19887;SDS011;10106;51.332;12.336;2022-12-07T02:01:02;7.30;;;3.40;;
19887;SDS011;10106;51.332;12.336;2022-12-07T02:03:39;8.80;;;4.50;;
19887;SDS011;10106;51.332;12.336;2022-12-07T02:06:07;5.97;;;3.67;;
19887;SDS011;10106;51.332;12.336;2022-12-07T02:08:34;10.47;;;4.30;;
19887;SDS011;10106;51.332;12.336;2022-12-07T02:11:02;7.80;;;4.70;;
19887;SDS011;10106;51.332;12.336;2022-12-07T02:13:31;10.17;;;5.00;;
19887;SDS011;10106;51.332;12.336;2022-12-07T02:21:29;11.00;;;3.83;;
19887;SDS011;10106;51.332;12.336;2022-12-07T02:29:56;8.07;;;3.50;;
19887;SDS011;10106;51.332;12.336;2022-12-07T02:37:53;9.40;;;3.97;;
19887;SDS011;10106;51.332;12.336;2022-12-07T02:40:35;10.77;;;4.00;;
19887;SDS011;10106;51.332;12.336;2022-12-07T02:45:50;12.83;;;4.30;;
19887;SDS011;10106;51.332;12.336;2022-12-07T02:48:18;6.87;;;3.93;;
19887;SDS011;10106;51.332;12.336;2022-12-07T02:50:49;7.23;;;3.70;;
19887;SDS011;10106;51.332;12.336;2022-12-07T02:53:28;5.83;;;3.13;;
19887;SDS011;10106;51.332;12.336;2022-12-07T02:55:59;8.93;;;3.70;;
19887;SDS011;10106;51.332;12.336;2022-12-07T03:03:48;4.97;;;3.73;;
19887;SDS011;10106;51.332;12.336;2022-12-07T03:06:36;4.37;;;2.40;;
19887;SDS011;10106;51.332;12.336;2022-12-07T03:09:19;4.87;;;3.00;;
19887;SDS011;10106;51.332;12.336;2022-12-07T03:11:55;4.40;;;3.03;;
19887;SDS011;10106;51.332;12.336;2022-12-07T03:14:47;13.00;;;4.50;;
19887;SDS011;10106;51.332;12.336;2022-12-07T03:17:24;9.60;;;4.23;;
19887;SDS011;10106;51.332;12.336;2022-12-07T03:19:56;7.80;;;3.30;;
19887;SDS011;10106;51.332;12.336;2022-12-07T03:22:25;5.77;;;2.87;;
19887;SDS011;10106;51.332;12.336;2022-12-07T03:25:00;8.40;;;3.57;;
19887;SDS011;10106;51.332;12.336;2022-12-07T03:27:35;12.13;;;4.33;;
19887;SDS011;10106;51.332;12.336;2022-12-07T03:30:06;6.03;;;2.67;;
19887;SDS011;10106;51.332;12.336;2022-12-07T03:32:48;5.60;;;2.50;;
19887;SDS011;10106;51.332;12.336;2022-12-07T03:35:27;13.20;;;3.80;;
19887;SDS011;10106;51.332;12.336;2022-12-07T03:40:45;10.23;;;3.37;;
19887;SDS011;10106;51.332;12.336;2022-12-07T03:43:15;6.27;;;3.20;;
19887;SDS011;10106;51.332;12.336;2022-12-07T03:45:56;5.33;;;3.70;;
19887;SDS011;10106;51.332;12.336;2022-12-07T03:48:46;6.20;;;3.73;;
19887;SDS011;10106;51.332;12.336;2022-12-07T03:51:31;4.37;;;3.10;;
19887;SDS011;10106;51.332;12.336;2022-12-07T03:54:11;5.03;;;2.90;;
19887;SDS011;10106;51.332;12.336;2022-12-07T03:56:42;4.83;;;3.40;;
19887;SDS011;10106;51.332;12.336;2022-12-07T03:59:10;7.73;;;4.70;;
19887;SDS011;10106;51.332;12.336;2022-12-07T04:01:38;10.83;;;4.77;;
19887;SDS011;10106;51.332;12.336;2022-12-07T04:04:06;6.03;;;2.97;;
19887;SDS011;10106;51.332;12.336;2022-12-07T04:06:31;6.80;;;3.80;;
19887;SDS011;10106;51.332;12.336;2022-12-07T04:08:57;7.00;;;3.30;;
19887;SDS011;10106;51.332;12.336;2022-12-07T04:11:23;6.93;;;3.73;;
19887;SDS011;10106;51.332;12.336;2022-12-07T04:13:48;8.63;;;5.00;;
19887;SDS011;10106;51.332;12.336;2022-12-07T04:16:32;5.70;;;3.83;;
19887;SDS011;10106;51.332;12.336;2022-12-07T04:18:58;10.30;;;4.23;;
19887;SDS011;10106;51.332;12.336;2022-12-07T04:21:24;12.10;;;4.47;;
19887;SDS011;10106;51.332;12.336;2022-12-07T04:23:49;10.50;;;4.73;;
19887;SDS011;10106;51.332;12.336;2022-12-07T04:26:15;7.63;;;3.33;;
19887;SDS011;10106;51.332;12.336;2022-12-07T04:28:40;10.87;;;4.43;;
19887;SDS011;10106;51.332;12.336;2022-12-07T04:31:06;5.60;;;2.60;;
19887;SDS011;10106;51.332;12.336;2022-12-07T04:33:32;3.20;;;2.60;;
19887;SDS011;10106;51.332;12.336;2022-12-07T04:35:58;5.27;;;2.57;;
19887;SDS011;10106;51.332;12.336;2022-12-07T04:38:29;5.70;;;2.90;;
19887;SDS011;10106;51.332;12.336;2022-12-07T04:40:57;8.83;;;3.70;;
19887;SDS011;10106;51.332;12.336;2022-12-07T04:43:26;13.00;;;4.60;;
19887;SDS011;10106;51.332;12.336;2022-12-07T04:45:51;9.27;;;4.37;;
19887;SDS011;10106;51.332;12.336;2022-12-07T04:48:17;5.53;;;2.40;;
19887;SDS011;10106;51.332;12.336;2022-12-07T04:50:43;12.97;;;4.00;;
19887;SDS011;10106;51.332;12.336;2022-12-07T04:53:08;8.03;;;2.37;;
19887;SDS011;10106;51.332;12.336;2022-12-07T04:55:34;5.00;;;2.80;;
19887;SDS011;10106;51.332;12.336;2022-12-07T04:58:01;6.40;;;3.57;;
19887;SDS011;10106;51.332;12.336;2022-12-07T05:00:26;5.13;;;2.97;;
19887;SDS011;10106;51.332;12.336;2022-12-07T05:02:52;5.33;;;3.60;;
19887;SDS011;10106;51.332;12.336;2022-12-07T05:05:18;4.37;;;3.10;;
19887;SDS011;10106;51.332;12.336;2022-12-07T05:07:43;10.40;;;3.50;;
19887;SDS011;10106;51.332;12.336;2022-12-07T05:10:09;9.40;;;4.10;;
19887;SDS011;10106;51.332;12.336;2022-12-07T05:12:35;3.33;;;2.80;;
19887;SDS011;10106;51.332;12.336;2022-12-07T05:15:01;7.93;;;4.10;;
19887;SDS011;10106;51.332;12.336;2022-12-07T05:17:26;6.57;;;4.07;;
19887;SDS011;10106;51.332;12.336;2022-12-07T05:19:52;4.93;;;3.67;;
19887;SDS011;10106;51.332;12.336;2022-12-07T05:22:18;10.20;;;4.30;;
19887;SDS011;10106;51.332;12.336;2022-12-07T05:24:43;7.77;;;5.27;;
19887;SDS011;10106;51.332;12.336;2022-12-07T05:27:09;6.73;;;4.17;;
19887;SDS011;10106;51.332;12.336;2022-12-07T05:29:35;7.93;;;3.17;;
19887;SDS011;10106;51.332;12.336;2022-12-07T05:32:01;10.37;;;4.50;;
19887;SDS011;10106;51.332;12.336;2022-12-07T05:34:26;8.77;;;4.77;;
19887;SDS011;10106;51.332;12.336;2022-12-07T05:36:52;6.00;;;3.13;;
19887;SDS011;10106;51.332;12.336;2022-12-07T05:39:18;7.10;;;4.10;;
19887;SDS011;10106;51.332;12.336;2022-12-07T05:41:43;8.10;;;3.13;;
19887;SDS011;10106;51.332;12.336;2022-12-07T05:44:27;6.47;;;3.90;;
19887;SDS011;10106;51.332;12.336;2022-12-07T05:46:53;5.27;;;4.10;;
19887;SDS011;10106;51.332;12.336;2022-12-07T05:49:19;5.77;;;3.30;;
19887;SDS011;10106;51.332;12.336;2022-12-07T05:51:45;7.80;;;3.93;;
19887;SDS011;10106;51.332;12.336;2022-12-07T05:54:13;9.90;;;5.00;;
19887;SDS011;10106;51.332;12.336;2022-12-07T05:56:39;6.20;;;4.57;;
19887;SDS011;10106;51.332;12.336;2022-12-07T05:59:05;4.30;;;3.30;;
19887;SDS011;10106;51.332;12.336;2022-12-07T06:06:59;7.20;;;3.83;;
19887;SDS011;10106;51.332;12.336;2022-12-07T06:09:25;8.23;;;4.40;;
19887;SDS011;10106;51.332;12.336;2022-12-07T06:11:52;6.97;;;4.23;;
19887;SDS011;10106;51.332;12.336;2022-12-07T06:14:38;6.90;;;3.40;;
19887;SDS011;10106;51.332;12.336;2022-12-07T06:17:04;14.47;;;5.30;;
19887;SDS011;10106;51.332;12.336;2022-12-07T06:19:30;9.20;;;5.40;;
19887;SDS011;10106;51.332;12.336;2022-12-07T06:21:56;18.50;;;6.17;;
19887;SDS011;10106;51.332;12.336;2022-12-07T06:24:23;8.30;;;4.90;;
19887;SDS011;10106;51.332;12.336;2022-12-07T06:26:49;10.57;;;4.77;;
19887;SDS011;10106;51.332;12.336;2022-12-07T06:29:16;11.07;;;5.13;;
19887;SDS011;10106;51.332;12.336;2022-12-07T06:31:42;12.63;;;5.50;;
19887;SDS011;10106;51.332;12.336;2022-12-07T06:34:12;12.37;;;4.80;;
19887;SDS011;10106;51.332;12.336;2022-12-07T06:36:40;8.23;;;4.70;;
19887;SDS011;10106;51.332;12.336;2022-12-07T06:39:06;7.13;;;4.40;;
19887;SDS011;10106;51.332;12.336;2022-12-07T06:41:34;11.37;;;5.67;;
19887;SDS011;10106;51.332;12.336;2022-12-07T06:44:01;9.17;;;4.47;;
19887;SDS011;10106;51.332;12.336;2022-12-07T06:46:26;8.87;;;4.77;;
19887;SDS011;10106;51.332;12.336;2022-12-07T06:48:52;8.13;;;4.80;;
19887;SDS011;10106;51.332;12.336;2022-12-07T06:51:18;8.77;;;5.33;;
19887;SDS011;10106;51.332;12.336;2022-12-07T06:53:43;8.60;;;4.90;;
19887;SDS011;10106;51.332;12.336;2022-12-07T06:56:09;14.37;;;5.43;;
19887;SDS011;10106;51.332;12.336;2022-12-07T06:58:35;9.73;;;6.50;;
19887;SDS011;10106;51.332;12.336;2022-12-07T07:01:02;8.20;;;3.93;;
19887;SDS011;10106;51.332;12.336;2022-12-07T07:03:28;12.10;;;6.60;;
19887;SDS011;10106;51.332;12.336;2022-12-07T07:05:53;13.87;;;5.80;;
19887;SDS011;10106;51.332;12.336;2022-12-07T07:08:19;15.60;;;5.23;;
19887;SDS011;10106;51.332;12.336;2022-12-07T07:10:45;10.67;;;3.90;;
19887;SDS011;10106;51.332;12.336;2022-12-07T07:13:10;12.93;;;5.53;;
19887;SDS011;10106;51.332;12.336;2022-12-07T07:15:37;11.00;;;6.30;;
19887;SDS011;10106;51.332;12.336;2022-12-07T07:18:03;14.53;;;5.57;;
19887;SDS011;10106;51.332;12.336;2022-12-07T07:20:29;10.73;;;5.37;;
19887;SDS011;10106;51.332;12.336;2022-12-07T07:22:55;9.07;;;5.50;;
19887;SDS011;10106;51.332;12.336;2022-12-07T07:25:21;9.70;;;4.87;;
19887;SDS011;10106;51.332;12.336;2022-12-07T07:27:46;8.00;;;4.70;;
19887;SDS011;10106;51.332;12.336;2022-12-07T07:30:12;16.17;;;5.43;;
19887;SDS011;10106;51.332;12.336;2022-12-07T07:32:38;11.60;;;5.03;;
19887;SDS011;10106;51.332;12.336;2022-12-07T07:35:04;8.20;;;4.30;;
19887;SDS011;10106;51.332;12.336;2022-12-07T07:37:30;16.70;;;6.30;;
19887;SDS011;10106;51.332;12.336;2022-12-07T07:39:55;10.10;;;3.90;;
19887;SDS011;10106;51.332;12.336;2022-12-07T07:42:21;8.70;;;5.10;;
19887;SDS011;10106;51.332;12.336;2022-12-07T07:44:47;17.47;;;5.93;;
19887;SDS011;10106;51.332;12.336;2022-12-07T07:47:13;16.10;;;5.80;;
19887;SDS011;10106;51.332;12.336;2022-12-07T07:49:38;11.97;;;6.17;;
19887;SDS011;10106;51.332;12.336;2022-12-07T07:52:07;11.70;;;6.27;;
19887;SDS011;10106;51.332;12.336;2022-12-07T07:54:33;8.83;;;4.10;;
19887;SDS011;10106;51.332;12.336;2022-12-07T07:56:58;11.50;;;5.97;;
19887;SDS011;10106;51.332;12.336;2022-12-07T07:59:24;8.30;;;5.40;;
19887;SDS011;10106;51.332;12.336;2022-12-07T08:01:50;17.63;;;5.00;;
19887;SDS011;10106;51.332;12.336;2022-12-07T08:04:16;8.17;;;4.53;;
19887;SDS011;10106;51.332;12.336;2022-12-07T08:06:41;13.60;;;6.90;;
19887;SDS011;10106;51.332;12.336;2022-12-07T08:09:08;11.27;;;4.60;;
19887;SDS011;10106;51.332;12.336;2022-12-07T08:11:34;5.40;;;3.90;;
19887;SDS011;10106;51.332;12.336;2022-12-07T08:14:01;19.93;;;5.20;;
19887;SDS011;10106;51.332;12.336;2022-12-07T08:16:27;18.70;;;5.53;;
19887;SDS011;10106;51.332;12.336;2022-12-07T08:18:52;11.90;;;4.77;;
19887;SDS011;10106;51.332;12.336;2022-12-07T08:21:18;10.17;;;4.50;;
19887;SDS011;10106;51.332;12.336;2022-12-07T08:23:44;13.40;;;4.87;;
19887;SDS011;10106;51.332;12.336;2022-12-07T08:26:10;7.97;;;5.10;;
19887;SDS011;10106;51.332;12.336;2022-12-07T08:28:38;6.90;;;4.60;;
19887;SDS011;10106;51.332;12.336;2022-12-07T08:31:08;8.77;;;4.80;;
19887;SDS011;10106;51.332;12.336;2022-12-07T08:33:37;8.17;;;4.37;;
19887;SDS011;10106;51.332;12.336;2022-12-07T08:36:04;11.20;;;5.10;;
19887;SDS011;10106;51.332;12.336;2022-12-07T08:38:35;8.93;;;5.30;;
19887;SDS011;10106;51.332;12.336;2022-12-07T08:41:02;8.30;;;4.57;;
19887;SDS011;10106;51.332;12.336;2022-12-07T08:43:28;13.90;;;5.80;;
19887;SDS011;10106;51.332;12.336;2022-12-07T08:46:09;9.10;;;4.90;;
19887;SDS011;10106;51.332;12.336;2022-12-07T08:48:43;6.87;;;4.20;;
19887;SDS011;10106;51.332;12.336;2022-12-07T08:51:13;14.50;;;4.60;;
19887;SDS011;10106;51.332;12.336;2022-12-07T08:53:39;12.60;;;5.53;;
19887;SDS011;10106;51.332;12.336;2022-12-07T08:56:06;8.60;;;5.47;;
19887;SDS011;10106;51.332;12.336;2022-12-07T08:58:33;7.77;;;4.60;;
19887;SDS011;10106;51.332;12.336;2022-12-07T09:01:00;9.80;;;5.30;;
19887;SDS011;10106;51.332;12.336;2022-12-07T09:03:26;8.50;;;4.87;;
19887;SDS011;10106;51.332;12.336;2022-12-07T09:05:52;7.60;;;4.40;;
19887;SDS011;10106;51.332;12.336;2022-12-07T09:08:19;10.03;;;5.17;;
19887;SDS011;10106;51.332;12.336;2022-12-07T09:10:45;10.37;;;3.97;;
19887;SDS011;10106;51.332;12.336;2022-12-07T09:13:12;11.60;;;4.57;;
19887;SDS011;10106;51.332;12.336;2022-12-07T09:15:38;8.17;;;4.60;;
19887;SDS011;10106;51.332;12.336;2022-12-07T09:18:04;17.90;;;5.27;;
19887;SDS011;10106;51.332;12.336;2022-12-07T09:20:30;7.40;;;4.33;;
19887;SDS011;10106;51.332;12.336;2022-12-07T09:22:56;17.20;;;4.90;;
19887;SDS011;10106;51.332;12.336;2022-12-07T09:25:21;11.40;;;4.27;;
19887;SDS011;10106;51.332;12.336;2022-12-07T09:27:47;9.20;;;4.63;;
19887;SDS011;10106;51.332;12.336;2022-12-07T09:30:13;8.30;;;4.73;;
19887;SDS011;10106;51.332;12.336;2022-12-07T09:32:38;8.03;;;4.43;;
19887;SDS011;10106;51.332;12.336;2022-12-07T09:35:04;8.57;;;3.70;;
19887;SDS011;10106;51.332;12.336;2022-12-07T09:37:30;6.77;;;4.10;;
19887;SDS011;10106;51.332;12.336;2022-12-07T09:40:00;13.40;;;3.90;;
19887;SDS011;10106;51.332;12.336;2022-12-07T09:42:36;6.87;;;3.60;;
19887;SDS011;10106;51.332;12.336;2022-12-07T09:45:07;8.27;;;4.20;;
19887;SDS011;10106;51.332;12.336;2022-12-07T09:47:40;12.90;;;5.20;;
19887;SDS011;10106;51.332;12.336;2022-12-07T09:50:07;7.97;;;4.57;;
19887;SDS011;10106;51.332;12.336;2022-12-07T09:52:38;7.23;;;4.40;;
19887;SDS011;10106;51.332;12.336;2022-12-07T09:55:12;8.80;;;4.30;;
19887;SDS011;10106;51.332;12.336;2022-12-07T09:57:40;8.87;;;4.30;;
19887;SDS011;10106;51.332;12.336;2022-12-07T10:00:12;5.37;;;3.50;;
19887;SDS011;10106;51.332;12.336;2022-12-07T10:02:44;5.60;;;4.10;;
19887;SDS011;10106;51.332;12.336;2022-12-07T10:05:16;8.17;;;4.60;;
19887;SDS011;10106;51.332;12.336;2022-12-07T10:07:47;7.53;;;3.53;;
19887;SDS011;10106;51.332;12.336;2022-12-07T10:10:15;13.27;;;3.80;;
19887;SDS011;10106;51.332;12.336;2022-12-07T10:13:02;9.73;;;3.60;;
19887;SDS011;10106;51.332;12.336;2022-12-07T10:15:55;13.97;;;4.67;;
19887;SDS011;10106;51.332;12.336;2022-12-07T10:21:00;19.70;;;4.17;;
19887;SDS011;10106;51.332;12.336;2022-12-07T10:23:27;8.83;;;3.90;;
19887;SDS011;10106;51.332;12.336;2022-12-07T10:25:52;9.70;;;4.60;;
19887;SDS011;10106;51.332;12.336;2022-12-07T10:28:20;6.03;;;3.60;;
19887;SDS011;10106;51.332;12.336;2022-12-07T10:30:47;9.00;;;3.63;;
19887;SDS011;10106;51.332;12.336;2022-12-07T10:33:36;10.57;;;3.97;;
19887;SDS011;10106;51.332;12.336;2022-12-07T10:36:17;4.80;;;2.10;;
19887;SDS011;10106;51.332;12.336;2022-12-07T10:38:48;3.60;;;2.47;;
19887;SDS011;10106;51.332;12.336;2022-12-07T10:41:18;5.00;;;2.50;;
19887;SDS011;10106;51.332;12.336;2022-12-07T10:43:52;4.90;;;3.40;;
19887;SDS011;10106;51.332;12.336;2022-12-07T10:57:47;3.17;;;2.70;;
19887;SDS011;10106;51.332;12.336;2022-12-07T11:00:27;6.27;;;3.37;;
19887;SDS011;10106;51.332;12.336;2022-12-07T11:09:38;5.70;;;3.10;;
19887;SDS011;10106;51.332;12.336;2022-12-07T11:12:12;9.80;;;3.43;;
19887;SDS011;10106;51.332;12.336;2022-12-07T11:17:58;3.50;;;2.80;;
19887;SDS011;10106;51.332;12.336;2022-12-07T11:20:43;5.17;;;3.50;;
19887;SDS011;10106;51.332;12.336;2022-12-07T11:25:53;11.97;;;3.80;;
19887;SDS011;10106;51.332;12.336;2022-12-07T11:33:44;5.00;;;3.03;;
19887;SDS011;10106;51.332;12.336;2022-12-07T11:36:29;8.03;;;3.70;;
19887;SDS011;10106;51.332;12.336;2022-12-07T11:38:57;4.40;;;2.57;;
19887;SDS011;10106;51.332;12.336;2022-12-07T11:41:35;10.13;;;3.77;;
19887;SDS011;10106;51.332;12.336;2022-12-07T11:44:07;2.97;;;2.30;;
19887;SDS011;10106;51.332;12.336;2022-12-07T11:49:12;7.03;;;3.10;;
19887;SDS011;10106;51.332;12.336;2022-12-07T11:51:49;13.30;;;3.70;;
19887;SDS011;10106;51.332;12.336;2022-12-07T11:54:21;7.63;;;3.70;;
19887;SDS011;10106;51.332;12.336;2022-12-07T11:56:51;3.50;;;2.70;;
19887;SDS011;10106;51.332;12.336;2022-12-07T11:59:25;7.00;;;3.80;;
19887;SDS011;10106;51.332;12.336;2022-12-07T12:02:14;8.67;;;2.93;;
19887;SDS011;10106;51.332;12.336;2022-12-07T12:07:48;4.63;;;3.10;;
19887;SDS011;10106;51.332;12.336;2022-12-07T12:13:46;8.47;;;2.53;;
19887;SDS011;10106;51.332;12.336;2022-12-07T12:21:54;2.13;;;2.00;;
19887;SDS011;10106;51.332;12.336;2022-12-07T12:24:23;1.80;;;1.33;;
19887;SDS011;10106;51.332;12.336;2022-12-07T12:27:02;5.27;;;2.50;;
19887;SDS011;10106;51.332;12.336;2022-12-07T12:29:55;6.73;;;3.00;;
19887;SDS011;10106;51.332;12.336;2022-12-07T12:40:52;5.60;;;1.90;;
19887;SDS011;10106;51.332;12.336;2022-12-07T12:51:56;3.87;;;1.67;;
19887;SDS011;10106;51.332;12.336;2022-12-07T12:54:59;2.50;;;1.90;;
19887;SDS011;10106;51.332;12.336;2022-12-07T12:57:37;2.83;;;2.00;;
19887;SDS011;10106;51.332;12.336;2022-12-07T13:00:24;4.03;;;1.50;;
19887;SDS011;10106;51.332;12.336;2022-12-07T13:02:56;2.90;;;1.37;;
19887;SDS011;10106;51.332;12.336;2022-12-07T13:05:30;2.07;;;1.97;;
19887;SDS011;10106;51.332;12.336;2022-12-07T13:08:05;2.73;;;1.40;;
19887;SDS011;10106;51.332;12.336;2022-12-07T13:10:46;1.87;;;1.30;;
19887;SDS011;10106;51.332;12.336;2022-12-07T13:15:43;2.60;;;1.50;;
19887;SDS011;10106;51.332;12.336;2022-12-07T13:21:01;1.80;;;1.03;;
19887;SDS011;10106;51.332;12.336;2022-12-07T13:23:31;1.00;;;0.90;;
19887;SDS011;10106;51.332;12.336;2022-12-07T13:26:03;1.47;;;1.13;;
19887;SDS011;10106;51.332;12.336;2022-12-07T13:28:36;3.73;;;1.17;;
19887;SDS011;10106;51.332;12.336;2022-12-07T13:34:05;5.23;;;2.00;;
19887;SDS011;10106;51.332;12.336;2022-12-07T13:36:51;1.63;;;1.53;;
19887;SDS011;10106;51.332;12.336;2022-12-07T13:39:18;13.70;;;1.63;;
19887;SDS011;10106;51.332;12.336;2022-12-07T13:41:52;7.30;;;1.27;;
19887;SDS011;10106;51.332;12.336;2022-12-07T13:44:23;5.30;;;1.37;;
19887;SDS011;10106;51.332;12.336;2022-12-07T13:49:32;3.27;;;1.30;;
19887;SDS011;10106;51.332;12.336;2022-12-07T13:52:13;1.80;;;1.50;;
19887;SDS011;10106;51.332;12.336;2022-12-07T13:54:45;1.60;;;1.43;;
19887;SDS011;10106;51.332;12.336;2022-12-07T13:57:11;0.87;;;0.70;;
19887;SDS011;10106;51.332;12.336;2022-12-07T13:59:37;2.80;;;1.27;;
19887;SDS011;10106;51.332;12.336;2022-12-07T14:02:16;1.37;;;0.97;;
19887;SDS011;10106;51.332;12.336;2022-12-07T14:04:49;1.30;;;1.20;;
19887;SDS011;10106;51.332;12.336;2022-12-07T14:07:24;3.80;;;0.87;;
19887;SDS011;10106;51.332;12.336;2022-12-07T14:10:05;2.17;;;1.37;;
19887;SDS011;10106;51.332;12.336;2022-12-07T14:12:32;1.07;;;1.07;;
19887;SDS011;10106;51.332;12.336;2022-12-07T14:15:02;2.00;;;1.33;;
19887;SDS011;10106;51.332;12.336;2022-12-07T14:17:28;1.97;;;1.30;;
19887;SDS011;10106;51.332;12.336;2022-12-07T14:19:57;2.30;;;1.60;;
19887;SDS011;10106;51.332;12.336;2022-12-07T14:27:58;7.63;;;1.97;;
19887;SDS011;10106;51.332;12.336;2022-12-07T14:30:27;1.43;;;1.10;;
19887;SDS011;10106;51.332;12.336;2022-12-07T14:32:57;4.17;;;1.50;;
19887;SDS011;10106;51.332;12.336;2022-12-07T14:35:25;2.30;;;1.43;;
19887;SDS011;10106;51.332;12.336;2022-12-07T14:37:51;1.93;;;1.50;;
19887;SDS011;10106;51.332;12.336;2022-12-07T14:40:18;12.03;;;1.83;;
19887;SDS011;10106;51.332;12.336;2022-12-07T14:42:50;3.13;;;1.43;;
19887;SDS011;10106;51.332;12.336;2022-12-07T14:45:20;1.73;;;1.63;;
19887;SDS011;10106;51.332;12.336;2022-12-07T14:47:46;1.30;;;1.20;;
19887;SDS011;10106;51.332;12.336;2022-12-07T14:50:13;17.83;;;4.77;;
19887;SDS011;10106;51.332;12.336;2022-12-07T14:52:54;4.10;;;3.10;;
19887;SDS011;10106;51.332;12.336;2022-12-07T14:55:24;3.90;;;2.10;;
19887;SDS011;10106;51.332;12.336;2022-12-07T14:57:50;7.17;;;1.60;;
19887;SDS011;10106;51.332;12.336;2022-12-07T15:00:17;6.40;;;2.77;;
19887;SDS011;10106;51.332;12.336;2022-12-07T15:02:44;1.17;;;1.17;;
19887;SDS011;10106;51.332;12.336;2022-12-07T15:05:11;6.40;;;2.07;;
19887;SDS011;10106;51.332;12.336;2022-12-07T15:07:37;3.43;;;3.13;;
19887;SDS011;10106;51.332;12.336;2022-12-07T15:10:03;2.43;;;1.40;;
19887;SDS011;10106;51.332;12.336;2022-12-07T15:12:29;10.00;;;5.00;;
19887;SDS011;10106;51.332;12.336;2022-12-07T15:14:55;19.57;;;7.00;;
19887;SDS011;10106;51.332;12.336;2022-12-07T15:17:20;62.23;;;23.77;;
19887;SDS011;10106;51.332;12.336;2022-12-07T15:19:49;28.73;;;13.87;;
19887;SDS011;10106;51.332;12.336;2022-12-07T15:22:15;8.82;;;4.00;;
19887;SDS011;10106;51.332;12.336;2022-12-07T15:24:50;7.03;;;2.83;;
19887;SDS011;10106;51.332;12.336;2022-12-07T15:27:25;24.23;;;5.60;;
19887;SDS011;10106;51.332;12.336;2022-12-07T15:29:55;6.40;;;3.53;;
19887;SDS011;10106;51.332;12.336;2022-12-07T15:32:21;12.10;;;2.37;;
19887;SDS011;10106;51.332;12.336;2022-12-07T15:34:50;3.30;;;1.77;;
19887;SDS011;10106;51.332;12.336;2022-12-07T15:37:16;3.27;;;2.63;;
19887;SDS011;10106;51.332;12.336;2022-12-07T15:39:41;10.77;;;4.10;;
19887;SDS011;10106;51.332;12.336;2022-12-07T15:42:07;6.63;;;2.77;;
19887;SDS011;10106;51.332;12.336;2022-12-07T15:44:33;4.50;;;2.80;;
19887;SDS011;10106;51.332;12.336;2022-12-07T15:47:17;14.93;;;5.60;;
19887;SDS011;10106;51.332;12.336;2022-12-07T15:49:43;16.00;;;3.57;;
19887;SDS011;10106;51.332;12.336;2022-12-07T15:52:09;12.40;;;2.90;;
19887;SDS011;10106;51.332;12.336;2022-12-07T15:54:34;2.80;;;2.60;;
19887;SDS011;10106;51.332;12.336;2022-12-07T15:57:01;3.50;;;2.30;;
19887;SDS011;10106;51.332;12.336;2022-12-07T15:59:27;2.20;;;2.00;;
19887;SDS011;10106;51.332;12.336;2022-12-07T16:01:57;1.73;;;1.63;;
19887;SDS011;10106;51.332;12.336;2022-12-07T16:04:22;1.57;;;1.47;;
19887;SDS011;10106;51.332;12.336;2022-12-07T16:06:54;1.67;;;1.50;;
19887;SDS011;10106;51.332;12.336;2022-12-07T16:09:21;4.30;;;2.80;;
19887;SDS011;10106;51.332;12.336;2022-12-07T16:11:50;2.73;;;2.10;;
19887;SDS011;10106;51.332;12.336;2022-12-07T16:14:24;1.93;;;1.23;;
19887;SDS011;10106;51.332;12.336;2022-12-07T16:16:53;10.63;;;2.60;;
19887;SDS011;10106;51.332;12.336;2022-12-07T16:19:19;2.53;;;2.20;;
19887;SDS011;10106;51.332;12.336;2022-12-07T16:21:48;4.73;;;2.53;;
19887;SDS011;10106;51.332;12.336;2022-12-07T16:24:14;6.47;;;2.47;;
19887;SDS011;10106;51.332;12.336;2022-12-07T16:26:40;3.00;;;2.43;;
19887;SDS011;10106;51.332;12.336;2022-12-07T16:29:06;2.83;;;2.00;;
19887;SDS011;10106;51.332;12.336;2022-12-07T16:31:34;6.30;;;3.40;;
19887;SDS011;10106;51.332;12.336;2022-12-07T16:34:03;15.80;;;3.70;;
19887;SDS011;10106;51.332;12.336;2022-12-07T16:36:32;5.20;;;2.90;;
19887;SDS011;10106;51.332;12.336;2022-12-07T16:38:58;4.73;;;2.33;;
19887;SDS011;10106;51.332;12.336;2022-12-07T16:41:25;6.07;;;2.90;;